Accueil
METAR-TAF:

METAR-TAF

Aéroports :

Palmer, Alaska, États-Unis

latitude: 61-36N, longitude: 149-05W, altitude: 74 m

Observation

Le bulletin a été fait il y a 26 minutes, à 19:53 UTC
Vent calme
Température -3°C
Humidité 93%
Pression 993 hPa
Visibilité: 16.1 km
Ciel couvert à une hauteur de 9000 ft

METAR: PAAQ 211953Z 00000KT 10SM OVC090 M03/M04 A2932 RMK AO2 SLP934 T10281039

Heure: 11:19 (20:19 UTC)

Prévision

Le bulletin a été fait il y a 2 heures et 35 minutes, à 17:44 UTC
Prévision valable du 21 à 18 UTC au 22 à 18 UTC
Vent 3 kt de direction variable
Visibilité: 10 km
Quelques nuages à une hauteur de 500 ft
Nuages fragmentés à une hauteur de 8000 ft

TAF: PAAQ 211744Z 2118/2218 VRB03KT P6SM FEW005 BKN080

Observations et prévisions météorologiques de plus de 4000 aéroports (messages METAR et TAF).

Les stations disponibles sont représentées par des disques jaunes et rouges sur la carte.

Passer la souris dessus pour voir le nom de la station.

Cliquer dessus pour voir les observations et prévisions météorologiques.

Pour changer de carte: cliquez sur les boutons verts avec une croix noire pour zoomer, sur le bouton vert avec un tiret pour effectuer un zoom arrière, ou sur les flèches vertes pour les cartes adjacentes.


METAR-TAF: